Pass Christian, Mississippi
Current Conditions -  °F | °C
As of 7:53 AM on Saturday 22 Nov 2014 (Local Time) from KGPT Reporting Station
Clear Clear  
Wind Chill: 57°   Ceiling: Unl
Heat Index: 57°   Visibility: 10mi
Dew Point: 47°   Wind: 5mph
Humidity: 69%   Direction: 70°ENE
Pressure: 30.26"   Gusts: NA
Location:  30.32°N, 89.22°W
Report Text: KGPT 221353Z 07004KT 10SM CLR 14/08 A3026 RMK AO2 SLP245 T01390083
Loading
Personal Weather Stations






























Interactive Weather Map New forecast layout! Learn more

10-Day Weather Forecast

Advertisements
Track Severe Weather on mobile